Time;durP1;ratioP1;P1;durP2;ratioP2;P2;SDS_P1;SDS_P2;PMS_P1;PMS_P2;Temp;Humidity;BMP_temperature;BMP_pressure;BME280_temperature;BME280_humidity;BME280_pressure;Samples;Min_cycle;Max_cycle;Signal;HPM_P1;HPM_P2
2023/05/22 00:01:21;;;;;;;9.63;7.07;;;;;;;15.89;100.00;101144.75;5056638;28;20054;-71
2023/05/22 00:03:47;;;;;;;13.43;6.95;;;;;;;15.80;100.00;101152.97;5068964;28;20024;-71
2023/05/22 00:06:13;;;;;;;9.85;7.78;;;;;;;15.78;100.00;101164.91;5086042;28;20495;-71
2023/05/22 00:08:39;;;;;;;;;;;;;;;15.77;100.00;101152.47;5081952;28;20546;-71
2023/05/22 00:11:04;;;;;;;12.35;7.38;;;;;;;15.73;100.00;101159.25;5078838;28;19920;-71
2023/05/22 00:13:30;;;;;;;12.40;7.87;;;;;;;15.65;100.00;101170.09;5049786;28;20115;-71
2023/05/22 00:15:55;;;;;;;12.38;6.80;;;;;;;15.59;100.00;101150.13;5085727;28;20119;-72
2023/05/22 00:18:21;;;;;;;12.33;7.13;;;;;;;15.57;100.00;101177.25;5063324;28;20024;-71
2023/05/22 00:20:47;;;;;;;11.10;6.87;;;;;;;15.55;100.00;101175.75;5085532;28;20557;-71
2023/05/22 00:23:12;;;;;;;12.13;7.25;;;;;;;15.49;100.00;101181.88;5067826;28;20023;-71
2023/05/22 00:25:38;;;;;;;12.00;6.63;;;;;;;15.47;100.00;101173.97;5081683;28;20036;-71
2023/05/22 00:28:04;;;;;;;10.25;6.47;;;;;;;15.44;100.00;101168.97;5082568;28;20235;-71
2023/05/22 00:30:30;;;;;;;11.68;7.07;;;;;;;15.38;100.00;101175.06;5078362;28;20051;-74
2023/05/22 00:32:56;;;;;;;9.85;6.93;;;;;;;15.34;100.00;101189.94;5068212;28;20085;-74
2023/05/22 00:35:21;;;;;;;11.48;6.55;;;;;;;15.28;100.00;101202.22;5068164;28;20028;-73
2023/05/22 00:37:47;;;;;;;9.37;7.07;;;;;;;15.13;100.00;101206.75;5085581;28;20028;-73
2023/05/22 00:40:14;;;;;;;10.70;6.70;;;;;;;15.17;100.00;101248.38;5085404;28;20292;-73
2023/05/22 00:42:42;;;;;;;9.63;7.18;;;;;;;15.15;100.00;101227.06;5067639;28;20111;-74
2023/05/22 00:45:10;;;;;;;11.82;6.90;;;;;;;15.09;100.00;101222.41;5068784;28;20047;-74
2023/05/22 00:47:35;;;;;;;9.27;6.47;;;;;;;15.09;100.00;101235.03;5055695;28;20027;-74
2023/05/22 00:50:02;;;;;;;9.27;6.67;;;;;;;15.02;100.00;101232.22;5081249;28;20036;-74
2023/05/22 00:52:27;;;;;;;11.15;7.15;;;;;;;14.98;100.00;101250.56;5061790;28;20282;-73
2023/05/22 00:54:53;;;;;;;10.90;6.55;;;;;;;14.95;100.00;101244.69;5068510;28;20047;-73
2023/05/22 00:57:20;;;;;;;13.97;7.40;;;;;;;14.93;100.00;101252.09;5050979;28;20077;-74
2023/05/22 00:59:47;;;;;;;10.95;6.70;;;;;;;14.90;100.00;101263.22;5067819;28;20703;-73
2023/05/22 01:02:15;;;;;;;10.30;6.43;;;;;;;14.89;100.00;101253.47;5063322;28;20017;-74
2023/05/22 01:04:47;;;;;;;10.98;6.95;;;;;;;14.82;100.00;101265.94;5067883;28;20035;-74
2023/05/22 01:07:13;;;;;;;10.93;6.85;;;;;;;14.78;100.00;101277.06;5059859;28;20025;-73
2023/05/22 01:09:38;;;;;;;12.57;7.03;;;;;;;14.78;100.00;101287.81;5067788;28;20135;-74
2023/05/22 01:12:33;;;;;;;10.43;6.87;;;;;;;14.74;100.00;101286.50;5063354;28;20131;-74
2023/05/22 01:15:05;;;;;;;8.48;6.78;;;;;;;14.69;100.00;101282.66;5043972;28;20039;-73
2023/05/22 01:18:23;;;;;;;13.93;6.90;;;;;;;14.62;100.00;101305.88;5067825;28;20028;-74
2023/05/22 01:21:05;;;;;;;10.38;7.07;;;;;;;14.51;100.00;101312.44;5076691;28;20063;-74
2023/05/22 01:24:28;;;;;;;11.05;7.30;;;;;;;14.43;100.00;101334.81;5049548;28;20031;-74
2023/05/22 01:27:27;;;;;;;15.55;7.13;;;;;;;14.31;100.00;101346.94;4984753;28;20065;-73
2023/05/22 01:30:32;;;;;;;14.15;7.85;;;;;;;14.30;100.00;101358.69;4969292;28;20042;-74
2023/05/22 01:32:58;;;;;;;12.38;7.45;;;;;;;14.25;100.00;101345.78;5001430;28;20088;-74
2023/05/22 01:35:25;;;;;;;9.25;6.93;;;;;;;14.22;100.00;101337.22;5003539;28;20112;-74
2023/05/22 01:37:51;;;;;;;9.05;6.40;;;;;;;14.18;100.00;101342.09;5003219;28;20042;-74
2023/05/22 01:40:17;;;;;;;;;;;;;;;14.17;100.00;101347.66;5003933;28;20025;-73
2023/05/22 01:42:42;;;;;;;;;;;;;;;14.13;100.00;101341.78;4986565;28;20292;-74
2023/05/22 01:45:10;;;;;;;10.17;6.20;;;;;;;14.07;100.00;101346.00;4982183;28;19913;-74
2023/05/22 01:47:35;;;;;;;15.00;7.60;;;;;;;14.06;100.00;101338.09;5002983;28;20042;-74
2023/05/22 01:50:02;;;;;;;10.93;7.72;;;;;;;13.98;100.00;101333.59;4986703;28;20080;-74
2023/05/22 01:52:40;;;;;;;11.45;7.57;;;;;;;13.96;100.00;101345.50;5002769;28;20045;-74
2023/05/22 01:55:16;;;;;;;11.35;7.90;;;;;;;13.93;100.00;101347.53;4985092;28;20439;-73
2023/05/22 01:57:58;;;;;;;10.88;7.88;;;;;;;13.91;100.00;101333.44;5010885;28;20491;-74
2023/05/22 02:00:25;;;;;;;11.88;7.45;;;;;;;13.88;100.00;101338.28;5067194;28;20032;-73
2023/05/22 02:02:57;;;;;;;12.25;7.45;;;;;;;13.87;100.00;101326.72;5057380;28;20020;-73
2023/05/22 02:05:24;;;;;;;16.83;7.53;;;;;;;13.85;100.00;101336.78;5049674;28;20076;-74
2023/05/22 02:07:52;;;;;;;11.02;7.13;;;;;;;13.83;100.00;101335.28;5075541;28;20499;-73
2023/05/22 02:10:19;;;;;;;12.90;7.00;;;;;;;13.79;100.00;101331.25;5063496;28;20059;-74
2023/05/22 02:12:45;;;;;;;12.30;7.63;;;;;;;13.71;100.00;101338.31;5061751;28;20028;-73
2023/05/22 02:15:10;;;;;;;11.48;8.00;;;;;;;13.64;100.00;101329.25;5065177;28;20024;-74
2023/05/22 02:17:39;;;;;;;16.42;8.32;;;;;;;13.60;100.00;101346.72;5064483;28;20035;-73
2023/05/22 02:20:15;;;;;;;10.52;7.47;;;;;;;13.55;100.00;101354.41;5052140;28;20063;-73
2023/05/22 02:22:45;;;;;;;11.15;7.57;;;;;;;13.48;100.00;101358.75;5066194;28;20414;-73
2023/05/22 02:25:15;;;;;;;11.85;8.75;;;;;;;13.37;100.00;101351.91;5075728;28;20059;-73
2023/05/22 02:27:42;;;;;;;16.42;8.88;;;;;;;13.30;100.00;101369.66;5049767;28;20032;-73
2023/05/22 02:30:09;;;;;;;13.30;8.18;;;;;;;13.21;100.00;101368.75;5046128;28;20121;-73
2023/05/22 02:32:35;;;;;;;15.25;9.23;;;;;;;13.15;100.00;101376.63;5059862;28;20443;-73
2023/05/22 02:35:02;;;;;;;12.20;8.15;;;;;;;13.12;100.00;101393.03;5076245;28;20073;-73
2023/05/22 02:37:28;;;;;;;13.40;8.68;;;;;;;13.05;100.00;101380.28;5078767;28;20063;-73
2023/05/22 02:39:53;;;;;;;12.82;8.75;;;;;;;13.01;100.00;101386.97;5066681;28;20073;-73
2023/05/22 02:42:19;;;;;;;17.03;8.60;;;;;;;12.94;100.00;101369.84;5044205;28;20063;-73
2023/05/22 02:44:47;;;;;;;15.55;9.45;;;;;;;12.88;100.00;101370.53;5064908;28;20047;-73
2023/05/22 02:47:14;;;;;;;14.38;9.38;;;;;;;12.84;100.00;101377.19;5066700;28;20067;-73
2023/05/22 02:49:40;;;;;;;13.60;8.90;;;;;;;12.84;100.00;101383.38;5061944;28;20487;-73
2023/05/22 02:52:05;;;;;;;18.73;10.80;;;;;;;12.77;100.00;101377.00;5061498;28;20028;-74
2023/05/22 02:54:31;;;;;;;16.25;9.45;;;;;;;12.74;100.00;101365.78;5044198;28;20028;-74
2023/05/22 02:56:56;;;;;;;11.67;9.40;;;;;;;12.70;100.00;101357.22;5049768;28;20514;-73
2023/05/22 02:59:22;;;;;;;17.33;9.93;;;;;;;12.68;100.00;101357.38;5061275;28;20094;-73
2023/05/22 03:01:47;;;;;;;14.97;8.40;;;;;;;12.70;100.00;101351.03;5065854;28;20112;-73
2023/05/22 03:04:13;;;;;;;15.03;8.90;;;;;;;12.70;100.00;101349.19;5066129;28;20119;-73
2023/05/22 03:06:38;;;;;;;16.55;8.60;;;;;;;12.76;100.00;101342.31;5081489;28;20039;-73
2023/05/22 03:09:04;;;;;;;12.93;8.60;;;;;;;12.80;100.00;101333.78;5058457;28;20040;-74
2023/05/22 03:11:30;;;;;;;14.15;8.07;;;;;;;12.85;100.00;101326.13;5080465;28;20036;-73
2023/05/22 03:13:56;;;;;;;;;;;;;;;12.89;100.00;101319.41;5060952;28;20055;-74
2023/05/22 03:16:21;;;;;;;;;;;;;;;12.89;100.00;101306.03;5044676;28;19963;-73
2023/05/22 03:18:49;;;;;;;15.00;8.57;;;;;;;12.92;100.00;101298.66;5066149;28;19915;-73
2023/05/22 03:21:15;;;;;;;18.02;8.25;;;;;;;12.92;100.00;101299.50;5065718;28;20028;-73
2023/05/22 03:23:41;;;;;;;14.03;7.87;;;;;;;12.93;100.00;101301.19;5083300;28;20433;-73
2023/05/22 03:26:06;;;;;;;14.93;8.10;;;;;;;12.95;100.00;101295.66;5055331;28;20108;-73
2023/05/22 03:28:34;;;;;;;13.27;7.75;;;;;;;12.99;100.00;101288.97;5049418;28;20028;-73
2023/05/22 03:31:00;;;;;;;15.40;8.00;;;;;;;13.08;100.00;101288.78;5056852;28;20093;-73
2023/05/22 03:33:31;;;;;;;16.55;9.05;;;;;;;13.11;100.00;101274.25;5063489;28;20028;-74
2023/05/22 03:35:56;;;;;;;12.57;8.43;;;;;;;13.16;100.00;101274.59;5047819;28;20089;-73
2023/05/22 03:38:22;;;;;;;12.50;7.13;;;;;;;13.23;100.00;101259.50;5063782;28;20032;-73
2023/05/22 03:40:47;;;;;;;17.47;7.80;;;;;;;13.29;100.00;101236.56;5063478;28;20036;-73
2023/05/22 03:43:13;;;;;;;16.60;8.27;;;;;;;13.37;100.00;101227.66;5061703;28;20522;-74
2023/05/22 03:45:38;;;;;;;12.90;7.07;;;;;;;13.41;100.00;101215.59;5065973;28;21076;-73
2023/05/22 03:48:04;;;;;;;12.53;8.97;;;;;;;13.46;100.00;101200.69;5064139;28;20031;-74
2023/05/22 03:50:29;;;;;;;10.98;7.22;;;;;;;13.54;100.00;101193.63;5067129;28;20039;-73
2023/05/22 03:52:55;;;;;;;17.73;8.07;;;;;;;13.49;100.00;101178.88;5045973;28;20453;-74
2023/05/22 03:55:20;;;;;;;14.60;8.00;;;;;;;13.61;100.00;101171.31;5079946;28;20028;-73
2023/05/22 03:57:45;;;;;;;10.57;7.00;;;;;;;13.69;100.00;101162.38;5064668;28;20028;-73
2023/05/22 04:00:12;;;;;;;13.30;7.70;;;;;;;13.70;100.00;101147.97;5065395;28;20028;-73
2023/05/22 04:02:43;;;;;;;12.05;6.57;;;;;;;13.71;100.00;101153.16;5078846;28;20467;-74
2023/05/22 04:05:09;;;;;;;12.98;7.57;;;;;;;13.75;100.00;101150.16;5069595;28;20418;-73
2023/05/22 04:07:35;;;;;;;11.60;7.47;;;;;;;13.71;100.00;101138.91;5059518;28;20028;-74
2023/05/22 04:10:02;;;;;;;10.40;6.88;;;;;;;13.77;100.00;101154.31;5061945;28;20071;-73
2023/05/22 04:12:28;;;;;;;17.55;7.60;;;;;;;13.81;100.00;101150.25;5057467;28;20075;-73
2023/05/22 04:14:53;;;;;;;11.83;7.37;;;;;;;13.88;100.00;101150.41;5066634;28;20455;-73
2023/05/22 04:17:18;;;;;;;12.27;7.27;;;;;;;13.91;100.00;101134.81;5083182;28;20030;-73
2023/05/22 04:19:45;;;;;;;16.30;9.57;;;;;;;13.96;100.00;101141.50;5066825;28;20075;-73
2023/05/22 04:22:10;;;;;;;;;;;;;;;14.02;100.00;101138.94;5060211;28;20464;-74
2023/05/22 04:24:38;;;;;;;12.35;7.53;;;;;;;14.08;100.00;101130.19;5067926;28;19911;-73
2023/05/22 04:27:04;;;;;;;11.70;7.57;;;;;;;14.10;100.00;101125.47;5044852;28;20021;-73
2023/05/22 04:29:30;;;;;;;15.95;8.45;;;;;;;14.15;100.00;101115.03;5082616;28;20036;-74
2023/05/22 04:31:55;;;;;;;13.03;7.70;;;;;;;14.26;100.00;101096.88;5067289;28;20035;-73
2023/05/22 04:34:20;;;;;;;10.47;7.43;;;;;;;14.33;100.00;101074.47;5063013;28;20027;-74
2023/05/22 04:36:46;;;;;;;10.13;7.00;;;;;;;14.41;100.00;101067.38;5047258;28;20475;-74
2023/05/22 04:39:13;;;;;;;9.65;6.70;;;;;;;14.56;100.00;101079.03;5046613;28;20036;-73
2023/05/22 04:41:39;;;;;;;22.70;7.40;;;;;;;14.67;100.00;101070.53;5063879;28;20033;-73
2023/05/22 04:44:05;;;;;;;8.75;6.88;;;;;;;14.76;100.00;101053.31;5084729;28;20486;-73
2023/05/22 04:46:33;;;;;;;9.05;6.30;;;;;;;14.84;100.00;101030.06;5067674;28;20479;-73
2023/05/22 04:49:00;;;;;;;15.07;7.53;;;;;;;14.89;100.00;101022.28;5068520;28;20028;-73
2023/05/22 04:51:31;;;;;;;12.52;7.10;;;;;;;14.90;100.00;101019.41;5046905;28;20089;-73
2023/05/22 04:53:57;;;;;;;12.40;7.63;;;;;;;15.06;100.00;101033.72;5068008;28;20032;-73
2023/05/22 04:56:23;;;;;;;12.48;7.25;;;;;;;15.14;100.00;100998.66;5046389;28;20020;-73
2023/05/22 04:58:49;;;;;;;10.43;7.70;;;;;;;15.34;100.00;100997.06;5065910;28;20877;-74
2023/05/22 05:01:18;;;;;;;13.68;7.00;;;;;;;15.56;100.00;100992.56;5045662;28;20080;-73
2023/05/22 05:03:44;;;;;;;13.00;6.63;;;;;;;15.79;100.00;100956.63;5066091;28;20036;-75
2023/05/22 05:06:11;;;;;;;10.17;6.53;;;;;;;15.82;100.00;100895.13;5047541;28;20031;-74
2023/05/22 05:08:36;;;;;;;7.72;6.15;;;;;;;16.02;100.00;100846.03;5072977;28;20490;-74
2023/05/22 05:11:02;;;;;;;10.55;6.57;;;;;;;16.00;100.00;100722.34;5051582;28;21161;-74
2023/05/22 05:13:27;;;;;;;11.00;6.60;;;;;;;16.17;100.00;100711.25;5067585;28;20076;-73
2023/05/22 05:15:53;;;;;;;18.50;7.33;;;;;;;16.20;100.00;100647.03;5067231;28;20550;-73
2023/05/22 05:18:21;;;;;;;9.23;6.78;;;;;;;16.46;100.00;100596.97;5067396;28;20379;-73
2023/05/22 05:20:47;;;;;;;12.82;6.72;;;;;;;16.48;100.00;100529.38;5063171;28;20291;-73
2023/05/22 05:23:12;;;;;;;7.27;6.10;;;;;;;17.01;100.00;100551.78;5062043;28;20111;-73
2023/05/22 05:25:38;;;;;;;11.87;6.10;;;;;;;17.65;100.00;100484.53;5068154;28;20035;-74
2023/05/22 05:28:09;;;;;;;10.35;6.55;;;;;;;18.48;100.00;100400.63;5081389;28;20041;-74
2023/05/22 05:30:39;;;;;;;11.35;5.78;;;;;;;19.02;100.00;100221.56;5079378;28;20028;-74
2023/05/22 05:33:23;;;;;;;9.25;6.47;;;;;;;18.79;100.00;100146.56;5081630;28;20084;-74
2023/05/22 05:36:00;;;;;;;8.95;5.90;;;;;;;18.85;100.00;100046.41;5062474;28;20038;-75
2023/05/22 05:38:26;;;;;;;9.90;5.97;;;;;;;18.77;100.00;100025.13;5061351;28;20652;-74
2023/05/22 05:40:53;;;;;;;11.07;6.28;;;;;;;18.47;100.00;100004.38;5060281;28;20283;-74
2023/05/22 05:43:19;;;;;;;9.50;6.00;;;;;;;18.60;100.00;100153.91;5071399;28;20073;-77
2023/05/22 05:45:44;;;;;;;11.55;5.55;;;;;;;18.49;100.00;100096.84;5067309;28;20038;-73
2023/05/22 05:48:10;;;;;;;12.73;5.90;;;;;;;18.52;100.00;100012.59;5066597;28;20028;-74
2023/05/22 05:50:40;;;;;;;10.90;6.03;;;;;;;19.06;100.00;100090.16;5067100;28;20577;-76
2023/05/22 05:53:07;;;;;;;7.68;5.80;;;;;;;19.38;100.00;100158.31;5066184;28;20032;-74
2023/05/22 05:55:33;;;;;;;8.40;6.20;;;;;;;19.59;97.51;100064.84;5065125;28;20031;-77
2023/05/22 05:57:59;;;;;;;8.73;5.35;;;;;;;20.18;92.95;99921.91;5064959;28;20043;-74
2023/05/22 06:00:37;;;;;;;7.47;5.22;;;;;;;20.78;90.61;99933.13;5075283;28;20028;-71
2023/05/22 06:03:03;;;;;;;6.35;5.68;;;;;;;20.45;87.96;99723.31;5063305;28;20119;-70
2023/05/22 06:05:47;;;;;;;8.40;6.18;;;;;;;20.18;86.48;99621.09;5081063;28;20085;-73
2023/05/22 06:08:20;;;;;;;6.32;5.05;;;;;;;20.73;86.49;99867.97;5064253;28;20552;-74
2023/05/22 06:10:47;;;;;;;10.00;5.70;;;;;;;20.84;85.55;99826.34;5067106;28;20507;-73
2023/05/22 06:13:15;;;;;;;5.20;4.70;;;;;;;20.86;82.67;99650.56;5038721;28;20023;-73
2023/05/22 06:15:43;;;;;;;9.70;4.53;;;;;;;20.64;81.53;99524.00;5082093;28;20394;-71
2023/05/22 06:18:08;;;;;;;6.43;4.63;;;;;;;21.02;82.06;99752.72;5062183;28;20845;-74
2023/05/22 06:20:35;;;;;;;7.25;5.00;;;;;;;20.15;81.27;99504.25;5066918;28;20088;-70
2023/05/22 06:23:01;;;;;;;7.03;4.40;;;;;;;20.74;82.39;99826.19;5063050;28;20024;-71
2023/05/22 06:25:28;;;;;;;6.83;5.40;;;;;;;20.58;81.88;99763.66;5072169;28;20123;-72
2023/05/22 06:27:54;;;;;;;8.75;5.35;;;;;;;20.71;80.83;99738.03;5059585;28;20319;-74
2023/05/22 06:30:19;;;;;;;7.25;5.05;;;;;;;21.45;80.46;99899.53;5058993;28;20032;-71
2023/05/22 06:32:45;;;;;;;11.45;5.00;;;;;;;21.47;77.37;99590.56;5039595;28;20028;-71
2023/05/22 06:35:11;;;;;;;6.37;5.03;;;;;;;21.07;78.87;99728.38;5059122;28;20475;-72
2023/05/22 06:37:37;;;;;;;7.30;5.40;;;;;;;21.23;78.50;99797.19;5044947;28;20281;-70
2023/05/22 06:40:04;;;;;;;;;;;;;;;21.74;77.30;99853.09;5063754;28;20040;-74
2023/05/22 06:42:38;;;;;;;10.30;4.88;;;;;;;21.93;73.92;99556.25;5061051;28;19965;-72
2023/05/22 06:45:22;;;;;;;10.30;4.97;;;;;;;21.80;74.82;99627.41;5061095;28;20090;-75
2023/05/22 06:48:06;;;;;;;8.55;5.13;;;;;;;21.91;74.85;99704.34;5078396;28;20042;-73
2023/05/22 06:50:36;;;;;;;7.63;4.65;;;;;;;22.27;74.48;99810.59;5063987;28;20043;-76
2023/05/22 06:53:02;;;;;;;12.20;4.93;;;;;;;22.07;73.68;99697.09;5057326;28;20502;-73
2023/05/22 06:55:28;;;;;;;7.03;5.20;;;;;;;21.89;73.67;99691.03;5048097;28;20024;-75
2023/05/22 06:58:04;;;;;;;8.82;5.70;;;;;;;21.31;75.61;99776.09;5051193;28;20044;-74
2023/05/22 07:00:32;;;;;;;10.50;5.47;;;;;;;21.55;74.54;99749.47;5061299;28;20191;-72
2023/05/22 07:03:12;;;;;;;7.60;4.78;;;;;;;21.75;74.11;99800.41;5060541;28;20103;-74
2023/05/22 07:05:56;;;;;;;9.07;4.38;;;;;;;21.87;73.57;99792.91;5058400;28;20418;-73
2023/05/22 07:08:22;;;;;;;23.08;5.80;;;;;;;21.92;73.33;99761.16;5054005;28;20025;-75
2023/05/22 07:10:47;;;;;;;6.63;4.90;;;;;;;22.71;72.32;99881.84;5065701;28;20070;-71
2023/05/22 07:13:13;;;;;;;5.93;5.03;;;;;;;22.66;72.00;99824.66;5064507;28;20639;-71
2023/05/22 07:15:38;;;;;;;9.20;5.67;;;;;;;22.02;70.51;99474.25;5065871;28;20640;-71
2023/05/22 07:18:05;;;;;;;5.88;4.57;;;;;;;22.55;71.13;99730.53;5065848;28;20433;-71
2023/05/22 07:20:31;;;;;;;8.85;4.65;;;;;;;22.94;69.41;99664.75;5065507;28;20085;-71
2023/05/22 07:23:07;;;;;;;5.68;4.72;;;;;;;22.85;68.48;99587.47;5061109;28;20035;-72
2023/05/22 07:25:34;;;;;;;9.68;5.43;;;;;;;22.96;67.62;99542.84;5052848;28;20043;-72
2023/05/22 07:28:02;;;;;;;6.40;4.50;;;;;;;22.11;69.58;99529.69;5048650;28;20039;-71
2023/05/22 07:30:28;;;;;;;7.28;4.63;;;;;;;22.73;69.41;99738.22;5069006;28;20036;-74
2023/05/22 07:32:54;;;;;;;7.90;4.38;;;;;;;23.29;67.61;99680.31;5063809;28;20031;-72
2023/05/22 07:35:19;;;;;;;8.43;4.30;;;;;;;23.07;67.04;99513.75;5069295;28;20047;-71
2023/05/22 07:37:45;;;;;;;6.27;4.10;;;;;;;23.01;67.19;99558.38;5064338;28;20016;-71
2023/05/22 07:40:10;;;;;;;7.63;4.17;;;;;;;23.46;66.52;99611.97;5064469;28;20316;-73
2023/05/22 07:42:37;;;;;;;8.20;4.15;;;;;;;23.42;65.20;99446.66;5082928;28;20043;-71
2023/05/22 07:45:03;;;;;;;6.05;4.22;;;;;;;23.51;65.18;99505.72;5059969;28;20571;-71
2023/05/22 07:47:28;;;;;;;10.55;4.18;;;;;;;23.69;62.63;99210.03;5063820;28;20032;-74
2023/05/22 07:49:54;;;;;;;8.27;4.27;;;;;;;24.15;63.71;99555.88;5046743;28;20302;-74
2023/05/22 07:52:20;;;;;;;5.43;4.10;;;;;;;23.81;61.06;99081.59;5066190;28;20328;-74
2023/05/22 07:54:46;;;;;;;8.20;3.85;;;;;;;23.94;62.83;99390.81;5069357;28;20031;-73
2023/05/22 07:57:12;;;;;;;7.47;3.72;;;;;;;23.80;60.80;99107.25;5064136;28;20016;-71
2023/05/22 07:59:42;;;;;;;7.78;4.40;;;;;;;23.08;59.99;98796.81;5064084;28;20036;-71
2023/05/22 08:02:08;;;;;;;7.25;4.22;;;;;;;23.23;60.41;98994.56;5078021;28;20074;-72
2023/05/22 08:04:34;;;;;;;4.20;3.15;;;;;;;23.44;62.20;99290.06;5068590;28;20051;-74
2023/05/22 08:07:00;;;;;;;8.27;4.25;;;;;;;22.54;61.15;98907.56;5062345;28;20036;-74
2023/05/22 08:09:26;;;;;;;7.28;4.75;;;;;;;22.68;61.29;99019.22;5080113;28;20032;-72
2023/05/22 08:11:51;;;;;;;5.75;3.78;;;;;;;22.19;61.77;98933.91;5075832;28;20063;-73
2023/05/22 08:14:16;;;;;;;7.30;4.43;;;;;;;21.93;63.47;99154.16;5079452;28;20056;-72
2023/05/22 08:16:42;;;;;;;6.03;3.90;;;;;;;22.44;62.41;99193.16;5062678;28;20384;-71
2023/05/22 08:19:07;;;;;;;7.87;4.37;;;;;;;22.26;62.53;99105.69;5078328;28;20056;-72
2023/05/22 08:21:33;;;;;;;5.10;3.95;;;;;;;22.49;61.42;99074.28;5083845;28;20286;-72
2023/05/22 08:23:59;;;;;;;8.52;4.47;;;;;;;22.52;62.16;99223.31;5078291;28;20024;-72
2023/05/22 08:26:25;;;;;;;;;;;;;;;22.37;62.13;99170.91;5080248;28;20188;-72
2023/05/22 08:28:51;;;;;;;6.13;4.10;;;;;;;22.25;61.54;99003.50;5081298;28;19990;-72
2023/05/22 08:31:16;;;;;;;8.77;4.35;;;;;;;22.71;61.89;99299.66;5085819;28;20631;-72
2023/05/22 08:33:42;;;;;;;8.15;3.97;;;;;;;23.08;61.51;99336.53;5085110;28;20052;-72
2023/05/22 08:36:07;;;;;;;9.77;4.68;;;;;;;23.59;60.47;99341.69;5051292;28;20165;-73
2023/05/22 08:38:32;;;;;;;7.47;4.27;;;;;;;23.58;60.98;99383.66;5085929;28;20418;-73
2023/05/22 08:40:58;;;;;;;5.73;4.20;;;;;;;23.49;60.14;99191.97;5083283;28;20642;-73
2023/05/22 08:43:24;;;;;;;6.15;4.22;;;;;;;23.44;60.79;99327.38;5082216;28;20040;-73
2023/05/22 08:45:56;;;;;;;7.30;4.07;;;;;;;23.28;60.60;99240.31;5067804;28;20506;-73
2023/05/22 08:48:22;;;;;;;7.63;4.18;;;;;;;23.29;60.56;99222.06;5056271;28;20086;-72
2023/05/22 08:50:56;;;;;;;8.88;4.55;;;;;;;22.50;61.78;99156.66;5081017;28;20024;-71
2023/05/22 08:53:23;;;;;;;7.65;4.50;;;;;;;22.52;61.49;99139.00;5067345;28;20036;-73
2023/05/22 08:55:50;;;;;;;9.43;3.97;;;;;;;23.32;62.58;99570.03;5066702;28;20035;-71
2023/05/22 08:58:16;;;;;;;6.78;4.00;;;;;;;23.67;62.52;99620.06;5066750;28;20024;-73
2023/05/22 09:00:42;;;;;;;6.00;3.65;;;;;;;23.41;61.13;99357.88;5066050;28;20025;-72
2023/05/22 09:03:12;;;;;;;5.07;3.88;;;;;;;23.32;61.38;99341.31;5080858;28;20033;-72
2023/05/22 09:05:39;;;;;;;16.50;4.53;;;;;;;23.34;60.87;99306.44;5062771;28;20054;-73
2023/05/22 09:08:07;;;;;;;5.78;3.83;;;;;;;22.67;60.67;99031.22;5084677;28;20023;-72
2023/05/22 09:10:32;;;;;;;5.57;3.95;;;;;;;22.63;61.58;99202.31;5062605;28;20553;-72
2023/05/22 09:13:06;;;;;;;4.68;3.42;;;;;;;23.04;61.14;99291.94;5060185;28;20486;-72
2023/05/22 09:15:32;;;;;;;9.38;3.88;;;;;;;23.51;60.51;99328.69;5060551;28;20089;-73
2023/05/22 09:17:58;;;;;;;8.23;4.50;;;;;;;24.21;59.35;99404.78;5080934;28;20020;-73
2023/05/22 09:20:24;;;;;;;5.78;3.58;;;;;;;24.20;57.89;99182.28;5079840;28;20051;-72
2023/05/22 09:22:50;;;;;;;7.63;3.40;;;;;;;23.87;57.88;99075.00;5079897;28;20028;-73
2023/05/22 09:25:19;;;;;;;4.77;3.43;;;;;;;23.91;56.00;98800.81;5062618;28;20024;-73
2023/05/22 09:27:45;;;;;;;9.65;3.78;;;;;;;25.41;56.96;99531.69;5084008;28;20040;-73
2023/05/22 09:30:14;;;;;;;;;;;;;;;25.65;54.31;99119.81;5062870;28;20086;-73
2023/05/22 09:32:39;;;;;;;6.63;3.25;;;;;;;25.38;53.29;98926.66;5050407;28;19912;-73
2023/05/22 09:35:05;;;;;;;5.83;3.53;;;;;;;26.00;53.75;99153.09;5063756;28;20483;-74
2023/05/22 09:37:35;;;;;;;6.82;3.50;;;;;;;25.68;53.18;98979.03;5052593;28;20763;-74
2023/05/22 09:40:05;;;;;;;6.25;3.78;;;;;;;26.50;51.95;99098.44;5084355;28;20479;-73
2023/05/22 09:42:34;;;;;;;5.88;3.50;;;;;;;26.17;51.57;98913.75;5079316;28;20031;-74
2023/05/22 09:45:06;;;;;;;4.38;3.28;;;;;;;26.27;50.76;98798.59;5079930;28;20679;-74
2023/05/22 09:47:33;;;;;;;4.63;3.60;;;;;;;27.01;49.81;98973.22;5066401;28;20028;-74
2023/05/22 09:50:00;;;;;;;8.55;3.60;;;;;;;27.56;49.77;99085.19;5063953;28;20031;-72
2023/05/22 09:52:32;;;;;;;7.43;3.63;;;;;;;28.27;47.72;98943.56;5048122;28;20035;-73
2023/05/22 09:55:01;;;;;;;6.22;4.20;;;;;;;27.60;47.19;98619.41;5062423;28;20036;-74
2023/05/22 09:57:30;;;;;;;6.72;3.13;;;;;;;26.51;47.46;98276.50;5066540;28;20031;-74
2023/05/22 09:59:58;;;;;;;6.22;3.83;;;;;;;26.92;46.59;98357.16;5083865;28;20044;-74
2023/05/22 10:02:26;;;;;;;5.35;3.55;;;;;;;26.40;47.73;98474.91;5045472;28;20514;-75
2023/05/22 10:04:53;;;;;;;6.40;3.63;;;;;;;26.20;48.33;98476.38;5072646;28;20132;-72
2023/05/22 10:07:21;;;;;;;5.75;3.72;;;;;;;25.47;49.02;98304.78;5085302;28;20020;-73
2023/05/22 10:09:51;;;;;;;6.90;3.90;;;;;;;25.01;49.50;98330.66;5085202;28;20027;-73
2023/05/22 10:12:22;;;;;;;6.15;4.18;;;;;;;24.90;49.55;98337.50;5067035;28;20032;-73
2023/05/22 10:14:47;;;;;;;6.85;3.67;;;;;;;24.24;49.77;98119.25;5084125;28;20031;-72
2023/05/22 10:17:15;;;;;;;7.13;3.53;;;;;;;24.60;50.83;98506.34;5084302;28;20627;-72
2023/05/22 10:19:41;;;;;;;6.97;4.05;;;;;;;24.76;50.64;98542.25;5057423;28;20042;-73
2023/05/22 10:22:07;;;;;;;6.53;3.70;;;;;;;24.42;50.07;98311.78;5083282;28;20016;-72
2023/05/22 10:24:33;;;;;;;7.47;3.53;;;;;;;24.63;50.12;98387.63;5084088;28;20039;-73
2023/05/22 10:26:58;;;;;;;4.43;3.60;;;;;;;24.98;50.37;98636.16;5064572;28;20034;-72
2023/05/22 10:29:35;;;;;;;8.63;3.10;;;;;;;24.90;50.04;98508.66;5064344;28;20036;-72
2023/05/22 10:32:08;;;;;;;3.95;3.38;;;;;;;25.47;48.98;98571.63;5083835;28;20043;-72
2023/05/22 10:35:09;;;;;;;6.37;3.47;;;;;;;25.11;47.50;98121.28;5061897;28;20046;-72
2023/05/22 10:37:55;;;;;;;4.60;3.53;;;;;;;25.89;48.09;98599.47;5081463;28;20447;-74
2023/05/22 10:40:35;;;;;;;5.68;3.00;;;;;;;25.61;48.71;98568.78;5080493;28;20040;-73
2023/05/22 10:43:05;;;;;;;7.05;3.35;;;;;;;26.20;47.64;98580.28;5077653;28;20028;-72
2023/05/22 10:45:31;;;;;;;7.80;3.50;;;;;;;26.06;46.49;98371.84;5047687;28;20020;-73
2023/05/22 10:48:03;;;;;;;;;;;;;;;26.37;46.97;98584.97;5067016;28;20093;-73
2023/05/22 10:50:29;;;;;;;14.35;3.10;;;;;;;27.32;45.37;98657.34;5078334;28;20383;-73
2023/05/22 10:53:27;;;;;;;3.83;2.88;;;;;;;26.76;45.61;98367.03;5078861;28;20039;-73
2023/05/22 10:55:55;;;;;;;5.22;3.45;;;;;;;26.78;45.51;98430.47;5054503;28;20060;-72
2023/05/22 10:58:29;;;;;;;5.95;3.20;;;;;;;26.04;45.45;98046.03;5058032;28;20028;-73
2023/05/22 11:01:19;;;;;;;6.38;3.33;;;;;;;25.27;46.14;97931.31;5074624;28;20060;-73
2023/05/22 11:03:57;;;;;;;7.45;3.33;;;;;;;25.48;45.85;98062.47;5061047;28;20028;-72
2023/05/22 11:06:40;;;;;;;7.38;4.05;;;;;;;25.05;46.53;98016.91;5082547;28;20040;-72
2023/05/22 11:09:42;;;;;;;9.73;3.22;;;;;;;24.84;47.08;98053.09;5043857;28;20028;-73
2023/05/22 11:12:16;;;;;;;4.45;3.33;;;;;;;26.11;47.27;98637.69;5045948;28;20113;-73
2023/05/22 11:14:49;;;;;;;8.07;3.50;;;;;;;26.37;47.49;98710.81;5070890;28;20047;-73
2023/05/22 11:17:29;;;;;;;7.53;3.85;;;;;;;25.30;48.58;98454.13;5046329;28;20037;-72
2023/05/22 11:20:05;;;;;;;5.30;3.78;;;;;;;25.67;47.40;98407.13;5058027;28;20477;-73
2023/05/22 11:22:35;;;;;;;6.82;3.67;;;;;;;24.94;48.31;98202.06;5059470;28;20410;-73
2023/05/22 11:25:06;;;;;;;6.63;3.38;;;;;;;24.40;49.36;98254.00;5069509;28;20077;-72
2023/05/22 11:27:32;;;;;;;7.57;3.70;;;;;;;24.89;49.03;98431.44;5078009;28;20036;-73
2023/05/22 11:29:58;;;;;;;8.35;3.47;;;;;;;24.11;49.27;98148.19;5082994;28;20124;-72
2023/05/22 11:32:24;;;;;;;;;;;;;;;23.81;50.17;98144.38;5060635;28;20514;-73